Regency Centers (REG) Institutional Ownership

$60.89
+0.77 (+1.28%)
(As of 05/17/2024 ET)

Institutional Ownership Changes (13F Filings) for Regency Centers (NASDAQ:REG)

Current
Institutional Ownership
Percentage
96.07%
Number of
Institutional Buyers
(last 12 months)
260
Total
Institutional Inflows
(last 12 months)
$2.39B
Number of
Institutional Sellers
(last 12 months)
154
Total
Institutional Outflows
(last 12 months)
$990.63M
Get REG Insider Trade Alerts

Want to know when executives and insiders are buying or selling Regency Centers stock? Sign up for InsiderTrades.com's daily newsletter to get the latest insider transactions delivered to your inbox daily.

Skip Chart & View Institutional Buying and Selling Data

REG Institutional Buying and Selling by Quarter

Regency Centers Major Shareholders & Ownership History

Reporting DateMajor Shareholder NameShares HeldMarket Value% of PortfolioQuarterly Change in SharesOwnership in CompanyDetails
5/17/2024 Walleye Trading LLC42,660$2.58M0.0%N/A0.023%
5/17/2024 Plato Investment Management Ltd8,657$524K0.1%N/A0.005%
5/17/2024 iA Global Asset Management Inc.6,467$392K0.0%+22.0%0.003%
5/17/2024 LBP AM SA113,869$6.90M0.3%+195.6%0.062%
5/17/2024 Tidal Investments LLC14,265$864K0.0%+280.8%0.008%
5/16/2024 California State Teachers Retirement System250,903$15.20M0.0%+2.3%0.136%
5/16/2024 BROOKFIELD Corp ON 498,514$30.19M0.2%+11.0%0.270%
5/15/2024 Public Employees Retirement System of Ohio311,928$18.89M0.1%-3.0%0.169%
5/15/2024 Kentucky Retirement Systems Insurance Trust Fund5,421$328K0.0%-7.4%0.003%
5/15/2024 Kentucky Retirement Systems12,476$756K0.0%-5.1%0.007%
5/15/2024 Price T Rowe Associates Inc. MD9,048,753$548.00M0.1%+10.7%4.897%
5/15/2024 Beck Capital Management LLC31,226$1.89M0.5%-34.3%0.017%
5/15/2024 Magnetar Financial LLC38,362$2.32M0.1%N/A0.021%
5/15/2024 1832 Asset Management L.P.241,442$14.62M0.0%+13.6%0.131%
5/14/2024 Capital World Investors2,421,398$146.64M0.0%-52.6%1.310%
5/14/2024 Toronto Dominion Bank100,115$6.06M0.0%-11.4%0.054%
5/14/2024 EntryPoint Capital LLC856$52K0.0%N/A0.000%
5/14/2024 Shell Asset Management Co.28,228$1.71M0.1%+21.6%0.015%
5/14/2024 MQS Management LLC13,269$804K0.5%N/A0.007%
5/14/2024 Natixis17,964$1.09M0.0%+21.6%0.010%
5/14/2024 Healthcare of Ontario Pension Plan Trust Fund89,100$5.40M0.0%+107.2%0.048%
5/14/2024 CANADA LIFE ASSURANCE Co309,182$18.73M0.0%+5.3%0.167%
5/13/2024 UniSuper Management Pty Ltd68,653$4.16M0.0%+28.0%0.037%
5/13/2024 O Shaughnessy Asset Management LLC22,564$1.37M0.0%+2.9%0.012%
5/11/2024 Covestor Ltd1,575$95K0.1%+29.4%0.001%
5/11/2024 Edgestream Partners L.P.9,510$576K0.0%-85.4%0.005%
5/10/2024 Vanguard Group Inc.28,889,033$1.75B0.0%+3.0%15.635%
5/10/2024 Intech Investment Management LLC17,056$1.03M0.0%+340.8%0.009%
5/10/2024 Mitsubishi UFJ Trust & Banking Corp87,688$5.31M0.0%-10.2%0.047%
5/10/2024 Centersquare Investment Management LLC307,544$18.21M0.2%+46.8%0.166%
5/10/2024 Banco Santander S.A.17,250$1.05M0.0%N/A0.009%
5/9/2024 Mitsubishi UFJ Asset Management Co. Ltd.312,155$18.90M0.0%+18.7%0.169%
5/9/2024 State Board of Administration of Florida Retirement System187,067$11.45M0.0%+1.4%0.101%
5/8/2024 BNP PARIBAS ASSET MANAGEMENT Holding S.A.16,316$988K0.0%+15.2%0.009%
5/8/2024 Entropy Technologies LP23,603$1.43M0.2%N/A0.013%
5/8/2024 William Blair Investment Management LLC7,149$433K0.0%+13.2%0.004%
5/8/2024 ProShare Advisors LLC27,422$1.66M0.0%-1.8%0.015%
5/8/2024 US Bancorp DE7,713$467K0.0%+13.4%0.004%
5/8/2024 Russell Investments Group Ltd.987,147$59.77M0.1%+67.0%0.534%
5/8/2024 QRG Capital Management Inc.137,594$8.33M0.1%-53.5%0.074%
The ONE AI Stock to own now. (It’s not Nvidia.) (Ad)

Don’t panic — you haven’t missed the boat on AI. In fact, it has barely launched. Sure, the early stages of this boom were big … But I believe the real wealth in AI has yet to be made …

Click here to see the presentation now.
5/8/2024 Inspire Investing LLC7,346$445K0.0%N/A0.004%
5/7/2024 Sei Investments Co.605,477$36.67M0.1%-26.9%0.328%
5/7/2024Susquehanna Fundamental Investments LLC183,056$11.09M0.5%N/A0.099%
5/7/2024 Tectonic Advisors LLC6,030$365K0.0%+15.6%0.003%
5/7/2024 Swiss National Bank525,128$31.80M0.0%+1.4%0.284%
5/7/2024 Forsta AP Fonden58,400$3.54M0.0%-43.4%0.032%
5/7/2024 Hyman Charles D10,402$630K0.0%-2.3%0.006%
5/7/2024 SG Americas Securities LLC200,308$12.13M0.1%+750.6%0.108%
5/6/2024 Duality Advisers LP15,916$964K0.1%-68.4%0.009%
5/3/2024 Chevy Chase Trust Holdings LLC91,361$5.53M0.0%-0.8%0.049%
5/3/2024 BI Asset Management Fondsmaeglerselskab A S5,496$333K0.0%-37.5%0.003%
5/2/2024 Mutual of America Capital Management LLC21,540$1.30M0.0%-2.0%0.012%
5/2/2024 FORA Capital LLC25,061$1.52M0.1%+493.7%0.014%
5/2/2024 Daiwa Securities Group Inc.70,413$4.26M0.0%+9.4%0.038%
5/2/2024 Fidelis Capital Partners LLC441$27K0.0%N/A0.000%
5/1/2024 Janney Montgomery Scott LLC4,824$292K0.0%+8.0%0.003%
5/1/2024 BNP Paribas Financial Markets435,673$26.38M0.0%+143.4%0.236%
5/1/2024 Mirae Asset Global Investments Co. Ltd.30,952$1.84M0.0%-1.2%0.017%
4/30/2024 Norden Group LLC5,302$321K0.0%N/A0.003%
4/30/2024 Van ECK Associates Corp71,689$4.34M0.0%+3.5%0.039%
4/30/2024 Sitrin Capital Management LLC62,047$3.76M2.1%-3.2%0.034%
4/30/2024 Caprock Group LLC4,008$246K0.0%N/A0.002%
4/30/2024 Naples Global Advisors LLC10,084$617K0.1%-4.4%0.005%
4/30/2024 Allspring Global Investments Holdings LLC7,751$469K0.0%-5.4%0.004%
4/29/2024 Principal Financial Group Inc.8,565,897$518.75M0.3%+16.5%4.636%
4/26/2024 Securian Asset Management Inc.9,614$582K0.0%-7.3%0.005%
4/26/2024 SYSTM Wealth Solutions LLC2,303$140K0.0%+13.3%0.001%
4/26/2024 Verdence Capital Advisors LLC5,273$319K0.0%+17.7%0.003%
4/25/2024 New York State Teachers Retirement System186,277$11.28M0.0%-10.2%0.101%
4/25/2024 Zurcher Kantonalbank Zurich Cantonalbank 139,889$8.47M0.0%-6.7%0.076%
4/25/2024 Fjarde AP Fonden Fourth Swedish National Pension Fund93,360$5.65M0.1%+23.1%0.051%
4/23/2024 Louisiana State Employees Retirement System9,600$581K0.0%-3.0%0.005%
4/23/2024 Amalgamated Bank35,373$2.14M0.0%-33.4%0.019%
4/23/2024 New Mexico Educational Retirement Board8,250$500K0.0%+2.5%0.004%
4/22/2024 Raymond James & Associates107,623$6.52M0.0%-12.1%0.058%
4/19/2024 Norden Group LLC5,302$321K0.0%N/A0.003%
4/19/2024 State of Alaska Department of Revenue104,027$6.30M0.1%+0.3%0.056%
4/19/2024 Sumitomo Mitsui Trust Holdings Inc.953,192$57.73M0.0%+29.9%0.516%
4/19/2024 Handelsinvest Investeringsforvaltning4,035$244K0.1%-34.2%0.002%
4/18/2024 Naviter Wealth LLC10,901$667K0.1%+2.0%0.006%
4/18/2024 Eagle Ridge Investment Management3,480$211K0.0%-43.5%0.002%
4/18/2024 Allspring Global Investments Holdings LLC7,751$469K0.0%-5.4%0.004%
4/18/2024 Oak Thistle LLC9,161$555K0.5%N/A0.005%
4/17/2024Baker Ellis Asset Management LLC30,615$1.85M0.3%-11.4%0.017%
4/15/2024 Vert Asset Management LLC68,144$4.13M1.7%+5.8%0.037%
4/15/2024 West Paces Advisors Inc.35,520$2.15M0.6%-5.3%0.019%
4/10/2024 Park Avenue Securities LLC7,054$427K0.0%-41.2%0.004%
4/10/2024 Perpetual Ltd38,060$2.31M0.0%+18.4%0.021%
4/8/2024 Tompkins Financial Corp1,460$88K0.0%-20.4%0.001%
4/8/2024Pensionfund Sabic6,899$418K0.1%+17.0%0.004%
Bible Shocker: Have You Seen Elon Musk’s Miracle? (Ad)

Breaking News: Elon Musk Invents New Type of A.I. (Shocking) Elon Musk is about to shock the world again with this new type of A.I.… Minting new millionaires in the process.

Click here for the full story…
4/5/2024 GAMMA Investing LLC1,373$83K0.0%-19.3%0.001%
4/5/2024 Los Angeles Capital Management LLC13,626$825K0.0%-77.2%0.007%
3/29/2024 Kapitalo Investimentos Ltda5,640$378K0.1%N/A0.003%
3/27/2024 Nomura Holdings Inc.29,142$1.95M0.0%N/A0.016%
3/22/2024 PNC Financial Services Group Inc.13,505$905K0.0%+6.9%0.007%
3/21/2024 Healthcare of Ontario Pension Plan Trust Fund43,000$2.88M0.0%-38.6%0.023%
3/11/2024 Vanguard Group Inc.28,058,461$1.88B0.0%-1.1%15.201%
3/1/2024 Royal London Asset Management Ltd.94,367$6.32M0.0%+10.2%0.051%
3/1/2024 Goldman Sachs Group Inc.1,324,687$88.75M0.0%+1.5%0.718%
2/28/2024 American International Group Inc.43,214$2.90M0.0%-0.9%0.023%
(Data available from 1/1/2016 forward)

REG Institutional Ownership - Frequently Asked Questions

Who are the largest shareholders of REG shares?

During the previous two years, 413 institutional investors and hedge funds held shares of Regency Centers. The most heavily invested institutionals were Vanguard Group Inc. ($1.75B), Norges Bank ($1.14B), BlackRock Inc. ($1.10B), State Street Corp ($750.36M), Price T Rowe Associates Inc. MD ($548.00M), Principal Financial Group Inc. ($518.75M), and JPMorgan Chase & Co. ($317.91M).Learn more on REG's institutional investors.

What percentage of Regency Centers stock is owned by institutional investors?

96.07% of Regency Centers stock is owned by institutional investors. Learn more on REG's institutional investor holdings.

Which institutional investors have been buying Regency Centers stock?

Of the 363 institutional investors that purchased Regency Centers stock in the last 24 months, the following investors and hedge funds have bought the highest volume of shares: Norges Bank ($17.02M), Envestnet Asset Management Inc. ($3.04M), Principal Financial Group Inc. ($2.64M), JPMorgan Chase & Co. ($2.61M), Invesco Ltd. ($2.60M), Vanguard Group Inc. ($2.55M), and PGGM Investments ($1.73M).

How much institutional buying is happening at Regency Centers?

Institutional investors have bought a total of 58,526,671 shares in the last 24 months. This purchase volume represents approximately $4.23B in transactions.

Which Regency Centers major shareholders have been selling company stock?

Of the 244 institutional investors that sold Regency Centers stock in the last 24 months, the following investors and hedge funds have sold the highest volume of shares: Capital World Investors ($3.73M), Envestnet Asset Management Inc. ($3.12M), PGGM Investments ($937.50K), Centersquare Investment Management LLC ($852.42K), Los Angeles Capital Management LLC ($678.23K), O Shaughnessy Asset Management LLC ($615.97K), and Resolution Capital Ltd ($566.02K).

How much institutional selling is happening at Regency Centers?

Institutional investors have sold a total of 23,099,571 shares in the last 24 months. This volume of shares sold represents approximately $1.61B in transactions.


This page (NASDAQ:REG) was last updated on 5/19/2024 by MarketBeat.com Staff

From Our Partners